sensor_id;sensor_type;location;lat;lon;timestamp;pressure;altitude;pressure_sealevel;temperature;humidity
46412;BME280;32113;42.012;24.870;2022-11-15T00:00:49;99750.66;;;8.72;66.27
46412;BME280;32113;42.012;24.870;2022-11-15T00:03:17;99743.75;;;8.63;66.12
46412;BME280;32113;42.012;24.870;2022-11-15T00:05:43;99748.78;;;8.54;65.58
46412;BME280;32113;42.012;24.870;2022-11-15T00:08:09;99741.72;;;8.30;67.04
46412;BME280;32113;42.012;24.870;2022-11-15T00:10:36;99739.06;;;8.22;67.69
46412;BME280;32113;42.012;24.870;2022-11-15T00:13:11;99744.16;;;8.19;67.86
46412;BME280;32113;42.012;24.870;2022-11-15T00:15:38;99755.00;;;7.97;68.33
46412;BME280;32113;42.012;24.870;2022-11-15T00:18:05;99752.38;;;7.89;68.22
46412;BME280;32113;42.012;24.870;2022-11-15T00:20:33;99746.28;;;7.81;69.27
46412;BME280;32113;42.012;24.870;2022-11-15T00:22:58;99744.59;;;7.80;69.43
46412;BME280;32113;42.012;24.870;2022-11-15T00:25:24;99751.41;;;7.81;69.16
46412;BME280;32113;42.012;24.870;2022-11-15T00:27:49;99745.41;;;7.79;69.08
46412;BME280;32113;42.012;24.870;2022-11-15T00:30:17;99744.59;;;7.80;69.14
46412;BME280;32113;42.012;24.870;2022-11-15T00:32:42;99730.91;;;7.78;68.97
46412;BME280;32113;42.012;24.870;2022-11-15T00:35:08;99730.97;;;7.81;68.77
46412;BME280;32113;42.012;24.870;2022-11-15T00:37:33;99730.91;;;7.76;69.63
46412;BME280;32113;42.012;24.870;2022-11-15T00:39:58;99722.19;;;7.59;69.68
46412;BME280;32113;42.012;24.870;2022-11-15T00:42:24;99730.75;;;7.62;70.31
46412;BME280;32113;42.012;24.870;2022-11-15T00:44:49;99728.19;;;7.62;70.51
46412;BME280;32113;42.012;24.870;2022-11-15T00:47:14;99721.56;;;7.79;69.71
46412;BME280;32113;42.012;24.870;2022-11-15T00:49:40;99726.78;;;7.88;69.93
46412;BME280;32113;42.012;24.870;2022-11-15T00:52:07;99722.41;;;7.79;69.85
46412;BME280;32113;42.012;24.870;2022-11-15T00:54:32;99715.59;;;7.78;69.11
46412;BME280;32113;42.012;24.870;2022-11-15T00:56:57;99714.84;;;7.85;69.05
46412;BME280;32113;42.012;24.870;2022-11-15T00:59:23;99718.22;;;7.86;68.89
46412;BME280;32113;42.012;24.870;2022-11-15T01:01:48;99718.16;;;7.78;68.67
46412;BME280;32113;42.012;24.870;2022-11-15T01:04:14;99718.91;;;7.72;68.09
46412;BME280;32113;42.012;24.870;2022-11-15T01:06:39;99713.88;;;7.77;68.66
46412;BME280;32113;42.012;24.870;2022-11-15T01:09:05;99711.19;;;7.65;69.19
46412;BME280;32113;42.012;24.870;2022-11-15T01:11:30;99711.94;;;7.57;68.48
46412;BME280;32113;42.012;24.870;2022-11-15T01:13:56;99720.47;;;7.59;68.99
46412;BME280;32113;42.012;24.870;2022-11-15T01:16:21;99705.13;;;7.56;69.53
46412;BME280;32113;42.012;24.870;2022-11-15T01:18:46;99713.63;;;7.57;69.25
46412;BME280;32113;42.012;24.870;2022-11-15T01:21:17;99705.22;;;7.64;69.65
46412;BME280;32113;42.012;24.870;2022-11-15T01:23:42;99708.69;;;7.69;69.74
46412;BME280;32113;42.012;24.870;2022-11-15T01:26:11;99700.34;;;7.84;68.47
46412;BME280;32113;42.012;24.870;2022-11-15T01:28:38;99703.88;;;7.96;67.93
46412;BME280;32113;42.012;24.870;2022-11-15T01:31:07;99698.72;;;7.89;67.95
46412;BME280;32113;42.012;24.870;2022-11-15T01:33:34;99708.22;;;8.05;67.29
46412;BME280;32113;42.012;24.870;2022-11-15T01:36:11;99708.19;;;8.01;66.78
46412;BME280;32113;42.012;24.870;2022-11-15T01:38:36;99716.59;;;7.91;67.08
46412;BME280;32113;42.012;24.870;2022-11-15T01:41:02;99710.50;;;7.80;66.75
46412;BME280;32113;42.012;24.870;2022-11-15T01:43:34;99709.56;;;7.73;67.87
46412;BME280;32113;42.012;24.870;2022-11-15T01:46:04;99697.56;;;7.64;67.93
46412;BME280;32113;42.012;24.870;2022-11-15T01:48:34;99699.19;;;7.57;67.46
46412;BME280;32113;42.012;24.870;2022-11-15T01:51:06;99705.84;;;7.47;67.79
46412;BME280;32113;42.012;24.870;2022-11-15T01:53:33;99695.59;;;7.43;68.01
46412;BME280;32113;42.012;24.870;2022-11-15T01:56:03;99698.03;;;7.33;68.08
46412;BME280;32113;42.012;24.870;2022-11-15T01:58:29;99691.06;;;7.23;68.45
46412;BME280;32113;42.012;24.870;2022-11-15T02:00:55;99687.81;;;7.33;68.79
46412;BME280;32113;42.012;24.870;2022-11-15T02:03:25;99690.41;;;7.38;68.61
46412;BME280;32113;42.012;24.870;2022-11-15T02:05:53;99695.63;;;7.44;68.46
46412;BME280;32113;42.012;24.870;2022-11-15T02:08:18;99692.88;;;7.30;67.92
46412;BME280;32113;42.012;24.870;2022-11-15T02:10:47;99688.44;;;7.17;68.99
46412;BME280;32113;42.012;24.870;2022-11-15T02:13:14;99692.88;;;7.30;68.17
46412;BME280;32113;42.012;24.870;2022-11-15T02:15:56;99693.69;;;7.28;68.30
46412;BME280;32113;42.012;24.870;2022-11-15T02:18:26;99686.84;;;7.25;68.42
46412;BME280;32113;42.012;24.870;2022-11-15T02:32:03;99688.28;;;7.04;68.19
46412;BME280;32113;42.012;24.870;2022-11-15T02:34:52;99693.69;;;7.28;68.95
46412;BME280;32113;42.012;24.870;2022-11-15T02:37:34;99691.34;;;7.45;67.49
46412;BME280;32113;42.012;24.870;2022-11-15T02:43:11;99682.81;;;7.41;68.46
46412;BME280;32113;42.012;24.870;2022-11-15T02:46:07;99691.16;;;7.29;68.46
46412;BME280;32113;42.012;24.870;2022-11-15T02:48:35;99687.47;;;7.08;68.70
46412;BME280;32113;42.012;24.870;2022-11-15T02:51:01;99685.88;;;7.17;68.47
46412;BME280;32113;42.012;24.870;2022-11-15T02:53:27;99694.47;;;7.22;68.31
46412;BME280;32113;42.012;24.870;2022-11-15T02:55:53;99694.59;;;7.31;67.40
46412;BME280;32113;42.012;24.870;2022-11-15T03:01:10;99689.09;;;7.03;68.08
46412;BME280;32113;42.012;24.870;2022-11-15T03:04:02;99680.72;;;7.12;67.32
46412;BME280;32113;42.012;24.870;2022-11-15T03:06:44;99679.19;;;7.25;67.16
46412;BME280;32113;42.012;24.870;2022-11-15T03:09:20;99677.31;;;7.12;67.37
46412;BME280;32113;42.012;24.870;2022-11-15T03:11:56;99670.53;;;7.12;67.36
46412;BME280;32113;42.012;24.870;2022-11-15T03:14:34;99676.38;;;7.05;67.82
46412;BME280;32113;42.012;24.870;2022-11-15T03:19:57;99663.19;;;6.75;68.92
46412;BME280;32113;42.012;24.870;2022-11-15T03:22:24;99669.25;;;6.83;69.16
46412;BME280;32113;42.012;24.870;2022-11-15T03:24:57;99666.75;;;6.87;68.02
46412;BME280;32113;42.012;24.870;2022-11-15T03:27:27;99667.59;;;6.86;68.02
46412;BME280;32113;42.012;24.870;2022-11-15T03:30:05;99670.31;;;6.98;67.57
46412;BME280;32113;42.012;24.870;2022-11-15T03:32:35;99665.19;;;6.96;67.31
46412;BME280;32113;42.012;24.870;2022-11-15T03:35:12;99664.38;;;6.99;67.20
46412;BME280;32113;42.012;24.870;2022-11-15T03:40:11;99669.25;;;6.83;67.21
46412;BME280;32113;42.012;24.870;2022-11-15T03:42:43;99660.97;;;6.99;67.65
46412;BME280;32113;42.012;24.870;2022-11-15T03:45:19;99658.44;;;7.02;66.86
46412;BME280;32113;42.012;24.870;2022-11-15T03:48:00;99660.88;;;6.92;67.02
46412;BME280;32113;42.012;24.870;2022-11-15T03:50:27;99652.28;;;6.87;67.13
46412;BME280;32113;42.012;24.870;2022-11-15T03:52:54;99653.34;;;7.02;66.75
46412;BME280;32113;42.012;24.870;2022-11-15T03:55:20;99648.22;;;6.99;66.11
46412;BME280;32113;42.012;24.870;2022-11-15T03:57:48;99653.28;;;6.95;66.15
46412;BME280;32113;42.012;24.870;2022-11-15T04:00:14;99637.22;;;7.03;66.65
46412;BME280;32113;42.012;24.870;2022-11-15T04:02:39;99644.69;;;6.90;66.71
46412;BME280;32113;42.012;24.870;2022-11-15T04:05:05;99631.88;;;6.84;67.11
46412;BME280;32113;42.012;24.870;2022-11-15T04:07:30;99638.69;;;6.85;66.59
46412;BME280;32113;42.012;24.870;2022-11-15T04:09:56;99633.53;;;6.82;66.46
46412;BME280;32113;42.012;24.870;2022-11-15T04:12:34;99636.06;;;6.82;65.88
46412;BME280;32113;42.012;24.870;2022-11-15T04:15:09;99640.38;;;6.86;65.56
46412;BME280;32113;42.012;24.870;2022-11-15T04:17:42;99626.19;;;7.05;65.64
46412;BME280;32113;42.012;24.870;2022-11-15T04:22:53;99627.97;;;7.11;65.25
46412;BME280;32113;42.012;24.870;2022-11-15T04:25:37;99623.66;;;7.08;65.08
46412;BME280;32113;42.012;24.870;2022-11-15T04:28:03;99626.34;;;7.16;64.67
46412;BME280;32113;42.012;24.870;2022-11-15T04:30:28;99625.31;;;7.03;64.52
46412;BME280;32113;42.012;24.870;2022-11-15T04:32:54;99625.97;;;6.88;64.79
46412;BME280;32113;42.012;24.870;2022-11-15T04:35:19;99624.06;;;6.73;65.60
46412;BME280;32113;42.012;24.870;2022-11-15T04:37:45;99625.91;;;6.83;65.73
46412;BME280;32113;42.012;24.870;2022-11-15T04:40:10;99619.00;;;6.78;66.02
46412;BME280;32113;42.012;24.870;2022-11-15T04:42:36;99625.63;;;6.65;66.10
46412;BME280;32113;42.012;24.870;2022-11-15T04:45:01;99623.13;;;6.68;66.08
46412;BME280;32113;42.012;24.870;2022-11-15T04:47:27;99617.09;;;6.61;65.89
46412;BME280;32113;42.012;24.870;2022-11-15T04:49:53;99611.91;;;6.56;66.06
46412;BME280;32113;42.012;24.870;2022-11-15T04:52:18;99624.41;;;6.41;66.44
46412;BME280;32113;42.012;24.870;2022-11-15T04:54:44;99609.16;;;6.42;66.33
46412;BME280;32113;42.012;24.870;2022-11-15T04:57:09;99616.81;;;6.44;66.01
46412;BME280;32113;42.012;24.870;2022-11-15T04:59:35;99618.56;;;6.47;65.58
46412;BME280;32113;42.012;24.870;2022-11-15T05:02:00;99613.34;;;6.39;66.61
46412;BME280;32113;42.012;24.870;2022-11-15T05:04:26;99618.47;;;6.42;66.25
46412;BME280;32113;42.012;24.870;2022-11-15T05:06:51;99629.69;;;6.52;66.91
46412;BME280;32113;42.012;24.870;2022-11-15T05:09:18;99617.56;;;6.37;66.84
46412;BME280;32113;42.012;24.870;2022-11-15T05:11:44;99619.25;;;6.36;66.61
46412;BME280;32113;42.012;24.870;2022-11-15T05:14:10;99626.19;;;6.45;65.91
46412;BME280;32113;42.012;24.870;2022-11-15T05:16:36;99623.44;;;6.33;66.38
46412;BME280;32113;42.012;24.870;2022-11-15T05:19:02;99619.94;;;6.27;66.80
46412;BME280;32113;42.012;24.870;2022-11-15T05:21:28;99626.69;;;6.24;67.12
46412;BME280;32113;42.012;24.870;2022-11-15T05:23:53;99620.72;;;6.23;66.58
46412;BME280;32113;42.012;24.870;2022-11-15T05:26:19;99619.84;;;6.21;66.44
46412;BME280;32113;42.012;24.870;2022-11-15T05:28:44;99613.19;;;6.28;66.03
46412;BME280;32113;42.012;24.870;2022-11-15T05:31:14;99614.06;;;6.31;66.27
46412;BME280;32113;42.012;24.870;2022-11-15T05:33:41;99627.53;;;6.23;65.73
46412;BME280;32113;42.012;24.870;2022-11-15T05:36:16;99629.97;;;6.15;66.59
46412;BME280;32113;42.012;24.870;2022-11-15T05:38:43;99633.59;;;6.31;65.31
46412;BME280;32113;42.012;24.870;2022-11-15T05:41:09;99624.13;;;6.22;65.82
46412;BME280;32113;42.012;24.870;2022-11-15T05:43:36;99630.13;;;6.24;65.72
46412;BME280;32113;42.012;24.870;2022-11-15T05:46:03;99620.63;;;6.17;65.81
46412;BME280;32113;42.012;24.870;2022-11-15T05:48:29;99622.41;;;6.21;65.90
46412;BME280;32113;42.012;24.870;2022-11-15T05:50:55;99621.50;;;6.17;66.38
46412;BME280;32113;42.012;24.870;2022-11-15T05:53:23;99625.03;;;6.24;66.25
46412;BME280;32113;42.012;24.870;2022-11-15T05:55:50;99630.03;;;6.20;66.05
46412;BME280;32113;42.012;24.870;2022-11-15T05:58:16;99628.25;;;6.15;66.18
46412;BME280;32113;42.012;24.870;2022-11-15T06:00:41;99641.03;;;6.17;66.64
46412;BME280;32113;42.012;24.870;2022-11-15T06:03:08;99646.09;;;6.15;66.17
46412;BME280;32113;42.012;24.870;2022-11-15T06:05:34;99645.25;;;6.16;65.92
46412;BME280;32113;42.012;24.870;2022-11-15T06:07:59;99657.16;;;6.16;65.97
46412;BME280;32113;42.012;24.870;2022-11-15T06:10:25;99645.34;;;6.21;66.28
46412;BME280;32113;42.012;24.870;2022-11-15T06:13:01;99652.91;;;6.16;66.48
46412;BME280;32113;42.012;24.870;2022-11-15T06:15:27;99648.59;;;6.14;65.74
46412;BME280;32113;42.012;24.870;2022-11-15T06:17:52;99657.19;;;6.19;65.92
46412;BME280;32113;42.012;24.870;2022-11-15T06:20:22;99648.84;;;6.28;66.06
46412;BME280;32113;42.012;24.870;2022-11-15T06:22:48;99651.59;;;6.40;65.80
46412;BME280;32113;42.012;24.870;2022-11-15T06:25:13;99646.59;;;6.47;64.16
46412;BME280;32113;42.012;24.870;2022-11-15T06:27:39;99654.16;;;6.42;64.18
46412;BME280;32113;42.012;24.870;2022-11-15T06:30:05;99655.06;;;6.44;63.89
46412;BME280;32113;42.012;24.870;2022-11-15T06:32:30;99650.91;;;6.49;63.87
46412;BME280;32113;42.012;24.870;2022-11-15T06:34:56;99649.25;;;6.53;63.33
46412;BME280;32113;42.012;24.870;2022-11-15T06:37:21;99651.59;;;6.40;63.23
46412;BME280;32113;42.012;24.870;2022-11-15T06:39:47;99642.00;;;6.25;63.39
46412;BME280;32113;42.012;24.870;2022-11-15T06:42:12;99644.72;;;6.35;63.72
46412;BME280;32113;42.012;24.870;2022-11-15T06:44:38;99640.63;;;6.46;62.41
46412;BME280;32113;42.012;24.870;2022-11-15T06:47:03;99645.13;;;6.61;62.22
46412;BME280;32113;42.012;24.870;2022-11-15T06:49:28;99646.03;;;6.65;62.26
46412;BME280;32113;42.012;24.870;2022-11-15T06:51:54;99639.28;;;6.67;62.79
46412;BME280;32113;42.012;24.870;2022-11-15T06:54:19;99643.66;;;6.76;62.63
46412;BME280;32113;42.012;24.870;2022-11-15T06:56:46;99637.91;;;6.92;62.30
46412;BME280;32113;42.012;24.870;2022-11-15T06:59:11;99646.44;;;6.93;61.63
46412;BME280;32113;42.012;24.870;2022-11-15T07:01:36;99645.47;;;6.84;61.47
46412;BME280;32113;42.012;24.870;2022-11-15T07:04:02;99634.19;;;6.70;61.99
46412;BME280;32113;42.012;24.870;2022-11-15T07:06:27;99633.34;;;6.71;62.65
46412;BME280;32113;42.012;24.870;2022-11-15T07:08:53;99634.16;;;6.68;61.89
46412;BME280;32113;42.012;24.870;2022-11-15T07:11:18;99631.69;;;6.72;61.87
46412;BME280;32113;42.012;24.870;2022-11-15T07:13:43;99628.41;;;6.79;62.51
46412;BME280;32113;42.012;24.870;2022-11-15T07:16:10;99629.38;;;6.89;61.90
46412;BME280;32113;42.012;24.870;2022-11-15T07:18:38;99626.97;;;7.00;62.26
46412;BME280;32113;42.012;24.870;2022-11-15T07:21:05;99622.94;;;7.16;60.54
46412;BME280;32113;42.012;24.870;2022-11-15T07:23:31;99634.91;;;7.20;61.17
46412;BME280;32113;42.012;24.870;2022-11-15T07:25:57;99626.56;;;7.33;61.31
46412;BME280;32113;42.012;24.870;2022-11-15T07:28:24;99628.38;;;7.44;60.76
46412;BME280;32113;42.012;24.870;2022-11-15T07:30:49;99625.94;;;7.53;61.43
46412;BME280;32113;42.012;24.870;2022-11-15T07:33:14;99624.50;;;7.79;60.53
46412;BME280;32113;42.012;24.870;2022-11-15T07:35:40;99619.56;;;7.97;59.48
46412;BME280;32113;42.012;24.870;2022-11-15T07:38:05;99622.97;;;7.99;58.41
46412;BME280;32113;42.012;24.870;2022-11-15T07:40:31;99618.91;;;8.22;57.96
46412;BME280;32113;42.012;24.870;2022-11-15T07:43:05;99617.28;;;8.27;56.97
46412;BME280;32113;42.012;24.870;2022-11-15T07:45:31;99619.13;;;8.48;57.79
46412;BME280;32113;42.012;24.870;2022-11-15T07:47:58;99616.69;;;8.61;56.52
46412;BME280;32113;42.012;24.870;2022-11-15T07:50:24;99613.38;;;8.76;55.60
46412;BME280;32113;42.012;24.870;2022-11-15T07:52:54;99621.13;;;8.90;54.71
46412;BME280;32113;42.012;24.870;2022-11-15T07:55:21;99613.44;;;8.87;54.93
46412;BME280;32113;42.012;24.870;2022-11-15T07:57:46;99617.75;;;8.91;54.51
46412;BME280;32113;42.012;24.870;2022-11-15T08:00:12;99616.97;;;9.11;54.33
46412;BME280;32113;42.012;24.870;2022-11-15T08:02:38;99611.88;;;9.12;54.26
46412;BME280;32113;42.012;24.870;2022-11-15T08:05:03;99614.47;;;9.25;54.00
46412;BME280;32113;42.012;24.870;2022-11-15T08:07:30;99605.22;;;9.56;53.69
46412;BME280;32113;42.012;24.870;2022-11-15T08:09:55;99604.34;;;9.59;52.83
46412;BME280;32113;42.012;24.870;2022-11-15T08:12:21;99600.13;;;9.80;53.22
46412;BME280;32113;42.012;24.870;2022-11-15T08:14:47;99602.69;;;10.12;53.20
46412;BME280;32113;42.012;24.870;2022-11-15T08:17:12;99596.72;;;10.43;52.62
46412;BME280;32113;42.012;24.870;2022-11-15T08:19:37;99601.00;;;10.66;52.36
46412;BME280;32113;42.012;24.870;2022-11-15T08:22:03;99596.69;;;10.81;51.62
46412;BME280;32113;42.012;24.870;2022-11-15T08:24:28;99594.09;;;10.95;50.26
46412;BME280;32113;42.012;24.870;2022-11-15T08:26:53;99593.19;;;11.02;49.81
46412;BME280;32113;42.012;24.870;2022-11-15T08:29:19;99589.75;;;11.11;50.66
46412;BME280;32113;42.012;24.870;2022-11-15T08:31:44;99586.16;;;11.44;51.12
46412;BME280;32113;42.012;24.870;2022-11-15T08:34:10;99583.41;;;11.79;51.24
46412;BME280;32113;42.012;24.870;2022-11-15T08:36:36;99582.38;;;12.00;51.55
46412;BME280;32113;42.012;24.870;2022-11-15T08:39:01;99580.50;;;12.24;50.99
46412;BME280;32113;42.012;24.870;2022-11-15T08:41:32;99575.91;;;12.60;50.35
46412;BME280;32113;42.012;24.870;2022-11-15T08:43:58;99570.28;;;13.01;50.24
46412;BME280;32113;42.012;24.870;2022-11-15T08:46:24;99563.72;;;13.47;49.15
46412;BME280;32113;42.012;24.870;2022-11-15T08:48:49;99570.69;;;13.99;48.91
46412;BME280;32113;42.012;24.870;2022-11-15T08:51:15;99557.97;;;14.38;47.72
46412;BME280;32113;42.012;24.870;2022-11-15T08:53:41;99559.81;;;14.80;46.76
46412;BME280;32113;42.012;24.870;2022-11-15T08:56:10;99550.00;;;14.98;47.52
46412;BME280;32113;42.012;24.870;2022-11-15T08:58:36;99553.63;;;15.30;47.78
46412;BME280;32113;42.012;24.870;2022-11-15T09:01:03;99545.53;;;15.46;47.81
46412;BME280;32113;42.012;24.870;2022-11-15T09:03:29;99541.19;;;15.48;47.28
46412;BME280;32113;42.012;24.870;2022-11-15T09:05:55;99543.78;;;15.46;47.67
46412;BME280;32113;42.012;24.870;2022-11-15T09:08:21;99532.31;;;15.58;47.71
46412;BME280;32113;42.012;24.870;2022-11-15T09:10:47;99534.19;;;15.89;46.42
46412;BME280;32113;42.012;24.870;2022-11-15T09:13:12;99525.06;;;16.11;46.31
46412;BME280;32113;42.012;24.870;2022-11-15T09:15:38;99524.09;;;16.15;47.88
46412;BME280;32113;42.012;24.870;2022-11-15T09:18:04;99517.25;;;16.12;48.47
46412;BME280;32113;42.012;24.870;2022-11-15T09:20:29;99507.94;;;16.05;49.70
46412;BME280;32113;42.012;24.870;2022-11-15T09:22:59;99508.97;;;15.99;49.72
46412;BME280;32113;42.012;24.870;2022-11-15T09:25:24;99505.94;;;15.80;50.40
46412;BME280;32113;42.012;24.870;2022-11-15T09:27:50;99504.53;;;15.67;51.26
46412;BME280;32113;42.012;24.870;2022-11-15T09:30:15;99503.03;;;15.58;52.03
46412;BME280;32113;42.012;24.870;2022-11-15T09:32:41;99499.72;;;15.53;52.13
46412;BME280;32113;42.012;24.870;2022-11-15T09:35:06;99497.13;;;15.53;52.50
46412;BME280;32113;42.012;24.870;2022-11-15T09:37:32;99491.81;;;15.57;52.55
46412;BME280;32113;42.012;24.870;2022-11-15T09:39:58;99484.94;;;15.58;51.91
46412;BME280;32113;42.012;24.870;2022-11-15T09:50:50;99478.28;;;15.47;51.61
46412;BME280;32113;42.012;24.870;2022-11-15T09:56:20;99465.72;;;15.30;52.01
46412;BME280;32113;42.012;24.870;2022-11-15T09:59:17;99464.22;;;15.21;51.68
46412;BME280;32113;42.012;24.870;2022-11-15T10:04:30;99456.88;;;15.03;52.63
46412;BME280;32113;42.012;24.870;2022-11-15T10:07:26;99455.34;;;14.94;52.94
46412;BME280;32113;42.012;24.870;2022-11-15T10:10:09;99452.84;;;14.91;52.92
46412;BME280;32113;42.012;24.870;2022-11-15T10:12:40;99458.09;;;14.86;53.31
46412;BME280;32113;42.012;24.870;2022-11-15T10:15:14;99437.53;;;14.81;53.51
46412;BME280;32113;42.012;24.870;2022-11-15T10:20:47;99433.22;;;14.82;53.79
46412;BME280;32113;42.012;24.870;2022-11-15T10:23:16;99429.78;;;14.81;54.09
46412;BME280;32113;42.012;24.870;2022-11-15T10:25:43;99428.34;;;14.66;54.57
46412;BME280;32113;42.012;24.870;2022-11-15T10:28:29;99428.22;;;14.73;53.94
46412;BME280;32113;42.012;24.870;2022-11-15T10:30:57;99428.19;;;14.76;54.05
46412;BME280;32113;42.012;24.870;2022-11-15T10:33:33;99417.94;;;14.69;54.05
46412;BME280;32113;42.012;24.870;2022-11-15T10:46:36;99406.75;;;14.69;55.03
46412;BME280;32113;42.012;24.870;2022-11-15T10:49:25;99401.50;;;14.74;55.01
46412;BME280;32113;42.012;24.870;2022-11-15T10:54:54;99403.09;;;14.81;54.93
46412;BME280;32113;42.012;24.870;2022-11-15T10:57:47;99402.06;;;14.90;54.60
46412;BME280;32113;42.012;24.870;2022-11-15T11:03:30;99395.34;;;14.81;54.40
46412;BME280;32113;42.012;24.870;2022-11-15T11:06:05;99394.34;;;14.88;54.26
46412;BME280;32113;42.012;24.870;2022-11-15T11:08:31;99387.38;;;14.90;53.99
46412;BME280;32113;42.012;24.870;2022-11-15T11:11:01;99387.59;;;14.81;54.24
46412;BME280;32113;42.012;24.870;2022-11-15T11:19:04;99371.47;;;14.69;54.79
46412;BME280;32113;42.012;24.870;2022-11-15T11:24:52;99364.47;;;14.75;54.40
46412;BME280;32113;42.012;24.870;2022-11-15T11:30:20;99356.03;;;14.66;55.30
46412;BME280;32113;42.012;24.870;2022-11-15T11:38:06;99345.31;;;14.85;54.20
46412;BME280;32113;42.012;24.870;2022-11-15T11:49:02;99328.59;;;15.00;53.22
46412;BME280;32113;42.012;24.870;2022-11-15T11:51:42;99322.59;;;15.00;53.40
46412;BME280;32113;42.012;24.870;2022-11-15T11:56:44;99323.69;;;14.89;54.34
46412;BME280;32113;42.012;24.870;2022-11-15T11:59:44;99314.13;;;14.93;54.26
46412;BME280;32113;42.012;24.870;2022-11-15T12:02:25;99308.13;;;14.92;54.20
46412;BME280;32113;42.012;24.870;2022-11-15T12:05:01;99303.78;;;14.93;54.27
46412;BME280;32113;42.012;24.870;2022-11-15T12:07:32;99297.63;;;14.98;54.00
46412;BME280;32113;42.012;24.870;2022-11-15T12:10:04;99291.34;;;15.09;54.01
46412;BME280;32113;42.012;24.870;2022-11-15T12:13:06;99281.63;;;15.19;53.80
46412;BME280;32113;42.012;24.870;2022-11-15T12:18:17;99282.03;;;15.38;52.54
46412;BME280;32113;42.012;24.870;2022-11-15T12:21:01;99279.13;;;15.49;52.33
46412;BME280;32113;42.012;24.870;2022-11-15T12:23:32;99284.41;;;15.46;52.61
46412;BME280;32113;42.012;24.870;2022-11-15T12:26:05;99274.78;;;15.51;52.65
46412;BME280;32113;42.012;24.870;2022-11-15T12:31:04;99272.44;;;15.42;52.48
46412;BME280;32113;42.012;24.870;2022-11-15T12:33:38;99268.34;;;15.33;52.55
46412;BME280;32113;42.012;24.870;2022-11-15T12:36:10;99261.41;;;15.35;52.28
46412;BME280;32113;42.012;24.870;2022-11-15T12:38:58;99264.09;;;15.30;52.82
46412;BME280;32113;42.012;24.870;2022-11-15T12:41:35;99264.00;;;15.35;52.41
46412;BME280;32113;42.012;24.870;2022-11-15T12:44:01;99263.00;;;15.41;52.23
46412;BME280;32113;42.012;24.870;2022-11-15T12:59:50;99241.44;;;15.40;52.18
46412;BME280;32113;42.012;24.870;2022-11-15T13:02:23;99230.38;;;15.35;52.63
46412;BME280;32113;42.012;24.870;2022-11-15T13:04:50;99231.31;;;15.32;52.50
46412;BME280;32113;42.012;24.870;2022-11-15T13:10:45;99224.59;;;15.25;52.50
46412;BME280;32113;42.012;24.870;2022-11-15T13:17:43;99211.56;;;15.30;52.88
46412;BME280;32113;42.012;24.870;2022-11-15T13:23:07;99200.50;;;15.24;52.85
46412;BME280;32113;42.012;24.870;2022-11-15T13:28:37;99202.28;;;15.22;52.78
46412;BME280;32113;42.012;24.870;2022-11-15T13:31:29;99198.78;;;15.23;53.13
46412;BME280;32113;42.012;24.870;2022-11-15T13:36:40;99187.53;;;15.26;53.47
46412;BME280;32113;42.012;24.870;2022-11-15T13:39:26;99192.59;;;15.31;53.50
46412;BME280;32113;42.012;24.870;2022-11-15T13:41:52;99193.63;;;15.23;53.75
46412;BME280;32113;42.012;24.870;2022-11-15T13:44:23;99193.16;;;15.09;54.42
46412;BME280;32113;42.012;24.870;2022-11-15T13:47:04;99188.00;;;15.09;54.57
46412;BME280;32113;42.012;24.870;2022-11-15T13:49:34;99192.28;;;14.77;55.38
46412;BME280;32113;42.012;24.870;2022-11-15T13:52:05;99196.97;;;14.59;56.56
46412;BME280;32113;42.012;24.870;2022-11-15T13:54:44;99195.16;;;14.26;57.06
46412;BME280;32113;42.012;24.870;2022-11-15T13:57:51;99187.72;;;14.14;57.90
46412;BME280;32113;42.012;24.870;2022-11-15T14:02:51;99190.00;;;13.88;59.43
46412;BME280;32113;42.012;24.870;2022-11-15T14:05:20;99189.34;;;13.77;60.67
46412;BME280;32113;42.012;24.870;2022-11-15T14:10:41;99179.69;;;13.88;60.12
46412;BME280;32113;42.012;24.870;2022-11-15T14:13:26;99186.59;;;13.85;60.40
46412;BME280;32113;42.012;24.870;2022-11-15T14:15:52;99180.66;;;13.83;59.78
46412;BME280;32113;42.012;24.870;2022-11-15T14:18:47;99180.78;;;13.76;60.68
46412;BME280;32113;42.012;24.870;2022-11-15T14:21:12;99180.25;;;13.60;60.99
46412;BME280;32113;42.012;24.870;2022-11-15T14:23:38;99180.19;;;13.63;61.11
46412;BME280;32113;42.012;24.870;2022-11-15T14:26:04;99184.34;;;13.71;61.37
46412;BME280;32113;42.012;24.870;2022-11-15T14:28:32;99183.34;;;13.78;61.13
46412;BME280;32113;42.012;24.870;2022-11-15T14:30:59;99185.84;;;13.81;61.10
46412;BME280;32113;42.012;24.870;2022-11-15T14:33:37;99182.69;;;13.68;60.58
46412;BME280;32113;42.012;24.870;2022-11-15T14:38:38;99178.31;;;13.70;61.42
46412;BME280;32113;42.012;24.870;2022-11-15T14:41:04;99179.34;;;13.63;61.18
46412;BME280;32113;42.012;24.870;2022-11-15T14:43:31;99175.03;;;13.63;61.02
46412;BME280;32113;42.012;24.870;2022-11-15T14:45:56;99174.97;;;13.66;61.04
46412;BME280;32113;42.012;24.870;2022-11-15T14:48:22;99176.72;;;13.66;61.37
46412;BME280;32113;42.012;24.870;2022-11-15T14:50:48;99172.59;;;13.56;61.16
46412;BME280;32113;42.012;24.870;2022-11-15T14:53:15;99170.13;;;13.52;61.74
46412;BME280;32113;42.012;24.870;2022-11-15T14:55:41;99172.63;;;13.54;61.60
46412;BME280;32113;42.012;24.870;2022-11-15T14:58:07;99167.44;;;13.57;61.91
46412;BME280;32113;42.012;24.870;2022-11-15T15:00:34;99181.09;;;13.61;61.96
46412;BME280;32113;42.012;24.870;2022-11-15T15:03:01;99177.66;;;13.62;61.58
46412;BME280;32113;42.012;24.870;2022-11-15T15:05:39;99166.47;;;13.63;62.14
46412;BME280;32113;42.012;24.870;2022-11-15T15:08:05;99171.59;;;13.64;61.88
46412;BME280;32113;42.012;24.870;2022-11-15T15:10:35;99170.84;;;13.59;61.92
46412;BME280;32113;42.012;24.870;2022-11-15T15:13:02;99169.94;;;13.62;60.97
46412;BME280;32113;42.012;24.870;2022-11-15T15:15:36;99174.34;;;13.55;61.74